ADDS METAR Data INFO
IDs: Format: Raw Decoded Include TAF

Data at: 0929 UTC 25 Jun 2018

KOKC 250916Z 01017G25KT 9SM TSRA SCT011 BKN021CB OVC110 18/17 A2998 RMK AO2 PK WND 34028/0853 LTG DSNT ALQDS CONS LTGICCCCG NE-SE-SW TS NE-SE-SW MOV SE P0002 T01830172 $
KOKC 250852Z 35024G33KT 5SM TSRA BR FEW008 BKN013CB OVC021 18/17 A2998 RMK AO2 PK WND 33034/0828 LTG DSNT ALQDS SLP143 CONS LTGICCCCG OHD TS OHD MOV SE P0085 60089 T01780172 53065 $
KOKC 250838Z 34022G29KT 3SM +TSRA BR SCT008 BKN013CB OVC028 18/17 A2997 RMK AO2 PK WND 33034/0828 LTG DSNT ALQDS CONS LTGICCCCG OHD TS OHD MOV SE P0081 T01780172 $
KOKC 250821Z 34027G33KT 1 1/2SM +TSRA BR SCT008 BKN013CB OVC028 18/17 A2996 RMK AO2 PK WND 33033/0817 LTG DSNT ALQDS CONS LTGICCCCG OHD TS OHD MOV SE P0062 T01780172 $
KOKC 250813Z 33019G30KT 1 1/4SM R35R/5000VP6000FT +TSRA BR SCT006 BKN010CB OVC016 18/18 A2997 RMK AO2 PK WND 32030/0804 LTG DSNT ALQDS CONS LTGICCCCG OHD TS OHD MOV SE P0049 T01830178 $
KOKC 250803Z 32019G26KT 3/4SM R35R/4500VP6000FT +TSRA BR BKN008 BKN016CB OVC031 19/18 A2997 RMK AO2 PK WND 36026/0754 LTG DSNT ALQDS PRESRR CONS LTGICCCCG OHD TS OHD MOV SE P0026 T01890183 $
KOKC 250758Z 33018G29KT 1 1/2SM +TSRA BR SCT008 BKN016CB OVC028 19/18 A2994 RMK AO2 PK WND 36026/0754 LTG DSNT ALQDS CONS LTGICCCCG OHD TS OHD MOV SE P0007 T01890178 $
KOKC 250755Z 36022G30KT 3SM +TSRA BR SCT008 BKN016CB OVC028 19/18 A2991 RMK AO2 PK WND 36026/0754 LTG DSNT ALQDS CONS LTGICCCCG OHD TS OHD MOV SE P0004 T01890178 $
KOKC 250752Z 34023G31KT 4SM TSRA BR SCT011 BKN028CB OVC045 19/18 A2992 RMK AO2 PK WND 34034/0740 WSHFT 0707 LTG DSNT ALQDS RAB45 TSB18 SLP121 CONS LTGICCCCG OHD TS OHD MOV SE P0004 T01890178 $
KOKC 250743Z 34022G34KT 10SM TS BKN028CB BKN045 OVC110 20/17 A2992 RMK AO2 PK WND 34034/0740 WSHFT 0707 LTG DSNT ALQDS TSB18 CONS LTGICCCCG W-N TS W-N MOV SE T02000172 $
KOKC 250727Z 01011G31KT 10SM TS SCT025CB BKN100 BKN180 BKN250 21/18 A2988 RMK AO2 PK WND 30031/0718 WSHFT 0707 LTG DSNT W-N TSB18 CONS LTGICCCCG W-N TS W-N MOV SE T02110178 $
KOKC 250719Z 31024G31KT 10SM TS FEW050CB SCT100 BKN180 BKN250 24/19 A2990 RMK AO2 PK WND 30031/0718 WSHFT 0703 LTG DSNT W-N TSB18 PRESRR CONS LTGICCCCG W-N TS W-N MOV SE T02390194 $
KOKC 250717Z 30021G30KT 10SM SCT100 BKN150 BKN180 BKN250 24/20 A2990 RMK AO2 PK WND 30030/0717 WSHFT 0703 LTG DSNT W-N PRESRR CONS LTGICCCCG W-N TS W-N MOV SE T02440200 $
KOKC 250652Z 17017G26KT 10SM FEW150 SCT180 BKN250 24/19 A2977 RMK AO2 PK WND 16026/0650 LTG DSNT NW SLP069 FRQ LTGICCC DSNT NW CB DSNT NW MOV SE T02390194 $
KOKC 250552Z 13010KT 10SM FEW150 SCT180 BKN250 21/18 A2978 RMK AO2 SLP074 FRQ LTGICCC DSNT NW CB DSNT NW MOV SE T02060183 10217 20194 402720183 58016 $
KOKC 250452Z 12009KT 10SM FEW150 SCT180 SCT250 20/18 A2979 RMK AO2 SLP074 FRQ LTGICCC DSNT NW CB DSNT NW MOV E T02000178 $
KOKC 250352Z 11008KT 10SM FEW150 20/18 A2983 RMK AO2 SLP089 T02000178 $
KOKC 250252Z 15007KT 10SM FEW150 20/18 A2983 RMK AO2 SLP090 T02000178 58005 $
KOKC 250152Z 15005KT 10SM SCT100 BKN150 21/18 A2984 RMK AO2 SLP095 T02060178 $
KOKC 250052Z 07009KT 10SM BKN090 22/18 A2987 RMK AO2 SLP104 T02170178 $
KOKC 242352Z 16011G21KT 10SM BKN100 BKN150 BKN200 22/18 A2985 RMK AO2 SLP096 60102 T02170178 10228 20183 53011 $
KOKC 242252Z 18009KT 10SM SCT100 BKN150 21/18 A2982 RMK AO2 TSE17 SLP085 CB DSNT E-SE MOV SE T02060178 $
KOKC 242219Z 19008KT 10SM FEW050 SCT100 BKN150 BKN200 19/17 A2983 RMK AO2 TSE17 OCNL LTGIC DSNT E-SE CB DSNT E-SE MOV SE T01940172 $
KOKC 242152Z 16009KT 10SM TS FEW040 SCT100CB BKN150 BKN200 19/17 A2983 RMK AO2 SLP092 OCNL LTGICCG SE TS SE MOV SE T01940172 $
KOKC 242052Z 07007G17KT 10SM TS FEW050CB BKN100 BKN200 19/17 A2981 RMK AO2 LTG DSNT ALQDS RAE04 SLP083 OCNL LTGICCG SE TS SE MOV SE P0000 60102 T01940172 58052 $
KOKC 241952Z 10012G20KT 7SM R35R/6000VP6000FT -TSRA FEW050CB BKN100 BKN120 BKN250 19/17 A2983 RMK AO2 PK WND 02041/1900 WSHFT 1917 LTG DSNT ALQDS PRESFR SLP088 CONS LTGICCCCG OHD-ALQDS TS OHD-ALQDS P0033 T01890172 $
KOKC 241937Z 10022G38KT 6SM -TSRA BR FEW042CB BKN080 OVC120 19/17 A2985 RMK AO2 PK WND 02041/1900 WSHFT 1917 LTG DSNT ALQDS PRESFR CONS LTGICCCCG OHD-ALQDS TS OHD-ALQDS P0031 T01890172 $
KOKC 241931Z 09026G38KT 2SM R35R/5000VP6000FT TSRA BR SCT042CB BKN060 OVC100 18/17 A2986 RMK AO2 PK WND 02041/1900 WSHFT 1917 LTG DSNT ALQDS PRESFR FRQ LTGICCCCG OHD-ALQDS TS OHD-ALQDS P0029 T01830172 $
KOKC 241928Z 09026G35KT 1 3/4SM R35R/5000VP6000FT +TSRA BR SCT042CB BKN060 OVC100 18/17 A2987 RMK AO2 PK WND 02041/1900 LTG DSNT ALQDS PRESFR FRQ LTGICCCCG OHD-ALQDS TS OHD-ALQDS P0028 T01830172 $
KOKC 241924Z 07024G29KT 2SM +TSRA BR SCT042CB BKN060 OVC100 19/18 A2989 RMK AO2 PK WND 02041/1900 LTG DSNT ALQDS PRESFR FRQ LTGICCCCG OHD-ALQDS TS OHD-ALQDS P0024 T01890178 $
KOKC 241918Z 04019G29KT 3SM R35R/5500VP6000FT TSRA BR BKN060CB BKN070 OVC090 19/18 A2995 RMK AO2 PK WND 02041/1900 LTG DSNT ALQDS FRQ LTGICCCCG OHD-ALQDS TS OHD-ALQDS P0019 T01890178 $
KOKC 241914Z 04020G29KT 2 1/2SM R35R/5500VP6000FT TSRA BR BKN045CB BKN060 OVC080 19/18 A2996 RMK AO2 PK WND 02041/1900 LTG DSNT ALQDS FRQ LTGICCCCG OHD-ALQDS TS OHD-ALQDS P0017 T01890178 $
KOKC 241911Z 04023G29KT 1 1/2SM R35R/5500VP6000FT +TSRA BR BKN045CB BKN060 OVC080 18/18 A2996 RMK AO2 PK WND 02041/1900 LTG DSNT ALQDS FRQ LTGICCCCG OHD-ALQDS TS OHD-ALQDS P0015 T01830178 $
KOKC 241909Z 04021G41KT 1 1/4SM R35R/5500VP6000FT +TSRA BR BKN045CB BKN060 OVC080 18/18 A2995 RMK AO2 PK WND 02041/1900 LTG DSNT ALQDS FRQ LTGICCCCG OHD-ALQDS TS OHD-ALQDS P0015 T01830178 $
KOKC 241902Z 02028G41KT 1 1/4SM R35R/5000VP6000FT +TSRA BR BKN014CB BKN030 OVC070 19/18 A2996 RMK AO2 PK WND 02041/1900 LTG DSNT ALQDS FRQ LTGICCCCG OHD-ALQDS TS OHD-ALQDS P0008 T01890178 $
KOKC 241852Z 02026G38KT 1/2SM R35R/1400V4000FT +TSRA FG FEW009 BKN014CB OVC030 18/18 A2997 RMK AO2 PK WND 36042/1826 WSHFT 1741 LTG DSNT ALQDS RAB11 TSB02 SLP138 FRQ LTGICCCCG OHD-ALQDS TS OHD-ALQDS P0069 T01830178 $
KOKC 241850Z 02023G38KT 1/4SM R35R/1400V3000FT +TSRA FG FEW009 BKN014CB OVC030 18/18 A2997 RMK AO2 PK WND 36042/1826 WSHFT 1741 LTG DSNT ALQDS RAB11 TSB02 FRQ LTGICCCCG OHD-ALQDS TS OHD-ALQDS P0063 $
KOKC 241835Z 33027G42KT 3/4SM R35R/4000VP6000FT +TSRA BR FEW009 BKN015CB OVC040 19/18 A2998 RMK AO2 PK WND 36042/1826 WSHFT 1741 LTG DSNT W-NE RAB11 TSB02 PRESRR FRQ LTGICCCCG OHD-ALQDS TS OHD-ALQDS P0014 T01940183 $
KOKC 241833Z 33030G42KT 3/4SM R35R/4500VP6000FT +TSRA BR FEW011 BKN017CB OVC040 19/18 A2997 RMK AO2 PK WND 36042/1826 WSHFT 1741 LTG DSNT W-NE RAB11 TSB02 PRESRR FRQ LTGICCCCG OHD-ALQDS TS OHD-ALQDS P0007 T01940183 $
KOKC 241830Z 35027G42KT 1 1/2SM R35R/5500VP6000FT +TSRA BR BKN014CB BKN022 OVC080 20/18 A2996 RMK AO2 PK WND 36042/1826 WSHFT 1741 LTG DSNT W-NE RAB11 TSB02 PRESRR FRQ LTGICCCCG OHD-ALQDS TS OHD-ALQDS P0003 T02000183 $
KOKC 241820Z 02029G37KT 10SM -TSRA BKN014CB BKN022 OVC080 21/18 A2990 RMK AO2 PK WND 01037/1817 WSHFT 1741 LTG DSNT W-N RAB11 TSB02 FRQ LTGICCCCG N-E AND W-N TS N-E AND W-N MOV E P0000 T02060178 $
KOKC 241758Z 02019G31KT 10SM SCT017 BKN026 BKN080 BKN150 OVC250 22/18 A2990 RMK AO2 PK WND 03028/1753 WSHFT 1741 LTG DSNT W-N FRQ LTCIGCCCG W-N CB DSNT SW-NW-N T02220183 $
KOKC 241752Z 02024G31KT 10SM SCT017 BKN026 BKN080 BKN150 OVC250 23/18 A2990 RMK AO2 PK WND 02031/1750 LTG DSNT W AND NW SLP111 CB DSNT SW-NW-N 60001 T02280183 10272 20194 51016 $
KOKC 241746Z 01015G23KT 10SM BKN026 BKN080 BKN150 OVC250 26/21 A2990 RMK AO2 LTG DSNT W AND NW CB DSNT SW-NW-N $
KOKC 241652Z 10008KT 10SM FEW024 BKN130 BKN180 BKN250 27/20 A2987 RMK AO2 LTG DSNT E SLP099 CB DSNT W-N MOV SE T02670200 $
KOKC 241552Z 11007KT 10SM FEW040 SCT120 BKN150 BKN250 24/19 A2985 RMK AO2 LTG DSNT E AND W SLP093 CB DSNT E AND NW T02440189 $
KOKC 241452Z 17007KT 10SM FEW040 SCT070 SCT120 BKN210 BKN250 22/19 A2983 RMK AO2 LTG DSNT N RAE33 TSE17 SLP087 CB DSNT NW-N MOV SE P0001 60001 T02220194 58001 $
KOKC 241421Z 15014KT 10SM -RA FEW025 SCT040 SCT050 BKN130 BKN180 BKN250 20/18 A2979 RMK AO2 TSE17 PRESFR CB DSNT SE-SW AND NW P0001 T02000183 $
KOKC 241352Z 16009KT 10SM -TSRA FEW050CB BKN070 BKN150 OVC250 20/18 A2985 RMK AO2 LTG DSNT NE AND SW AND W RAB49 TSB42 SLP094 FRQ LTGICCCCG SW-W TS SW-W MOV E P0000 T02000183 $
KOKC 241334Z 18003KT 10SM VCTS FEW050CB BKN070 BKN150 BKN250 20/18 A2989 RMK AO2 LTG DSNT N AND W PRESRR FRQ LTGICCCCG W-N VCTS W-N MOV E T02000183 $
KOKC 241252Z 15005KT 10SM FEW045 SCT060 SCT100 BKN150 BKN250 20/19 A2984 RMK AO2 LTG DSNT N AND NW RAB29E49 TSE21 SLP088 FRQ LTGICCC DSNT NW-NE CB DSNT NW-NE P0000 T02000189 $
KOKC 241225Z 12010KT 10SM BKN060 OVC085 20/18 A2981 RMK AO2 LTG DSNT ALQDS TSE21 PRESFR FRQ LTGICCCCGCA DSNT N-E AND S AND NW CB DSNT N-E AND S AND NW T02000183 $
KOKC 241152Z 10004KT 10SM TS BKN048CB OVC065 19/18 A2984 RMK AO2 LTG DSNT ALQDS RAE1055 TSE10B12 SLP087 CONS LTGICCACCCG NW-NE AND DSNT S TS NW-NE MOV E CB DSNT S MOV E P0000 60092 70092 T01940183 10256 201 $
KOKC 241112Z 00000KT 10SM TS BKN048CB OVC250 19/18 A2981 RMK AO2 LTG DSNT ALQDS RAE1055 TSE10B12 CONS LTGICCA NW-NE-E TS NW-NE-E MOV E P0000 T01940183 $
KOKC 241052Z 06006KT 10SM -RA BKN048 OVC250 19/18 A2984 RMK AO2 LTG DSNT NW-E RAE32B38 TSE22E23B34E48 SLP088 CONS LTGICCGCACC DSNT NW-NE CB DSNT NW-NE MOV E P0000 T01940178 $
KOKC 241036Z 36008KT 10SM TS FEW008 OVC048CB 19/18 A2984 RMK AO2 LTG DSNT N-SE RAE32 TSE22E23B34 CONS LTGICCGCACC NW-NE TS NW-NE MOV SE P0000 T01940183 $
KOKC 241023Z COR 02007KT 10SM -RA FEW008 OVC048 19/18 A2983 RMK AO2 LTG DSNT ALQDS TSE22E23 CONS LTGICCGCACC DSNT NE-SE CB DSNT NE-SE MOV SE P0000 T01890178 $
KOKC 240959Z 03011KT 10SM -TSRA FEW008 SCT018 OVC045CB 19/18 A2983 RMK AO2 LTG DSNT ALQDS CONS LTGICCGCACC NE-SE TS NE-SE MOV SE P0000 T01890183 $
KOKC 240952Z 36014KT 10SM -TSRA FEW008 BKN014 OVC050CB 19/18 A2983 RMK AO2 PK WND 36046/0917 WSHFT 0909 LTG DSNT N-SE RAB11 TSB02 SLP084 CONS LTGICCGCACC OHD-NE-SE TS OHD-NE-SE MOV SE P0092 T01890183 $
KOKC 240941Z 35013G26KT 3SM +TSRA BR BKN016 BKN033CB OVC048 18/18 A2983 RMK AO2 PK WND 36046/0917 WSHFT 0909 LTG DSNT ALQDS RAB11 TSB02 CONS LTGICCGCACC OHD-ALQDS TS OHD-ALQDS MOV SE P0091 T01830183 $
KOKC 240939Z 36013G29KT 2 1/2SM TSRA BR BKN016 BKN033CB OVC048 18/18 A2983 RMK AO2 PK WND 36046/0917 WSHFT 0909 LTG DSNT ALQDS RAB11 TSB02 CONS LTGICCGCACC OHD-ALQDS TS OHD-ALQDS MOV SE P0090 T01830183 $
KOKC 240936Z 36015G34KT 1 3/4SM R35R/3000VP6000FT +TSRA BKN014 OVC033CB 18/18 A2984 RMK AO2 PK WND 36046/0917 WSHFT 0909 LTG DSNT ALQDS RAB11 TSB02 CONS LTGICCGCACC OHD-ALQDS TS OHD-ALQDS MOV SE P0089 T01830183 $
KOKC 240924Z 35027G46KT 1/2SM R35R/1800VP6000FT +TSRA FG SCT008 BKN017CB OVC095 18/18 A2984 RMK AO2 PK WND 36046/0917 WSHFT 0909 LTG DSNT W-NE RAB11 TSB02 CONS LTGICCGCACC OHD-NW-NE TS OHD-NW-NE MOV SE P0052 T01830178 $
KOKC 240919Z 35030G46KT 1/2SM R35R/1800VP6000FT TSRA FG FEW017 SCT033CB OVC085 19/18 A2984 RMK AO2 PK WND 36046/0917 LTG DSNT W-NE RAB11 TSB02 CONS LTGICCGCACC OHD-NW-NE TS OHD-NW-NE MOV SE P0018 T01940183
KOKC 240903Z COR 09010KT 10SM TS SCT095CB BKN110 OVC250 23/20 A2977 RMK AO2 LTG DSNT ALQDS TSB02 CONS LTGICCGCACC NW AND DSNT N-NE TS NW MOV SE CB DSNT N-NE MOV SE T02280200
KOKC 240852Z 09008KT 10SM FEW090 BKN110 OVC250 23/20 A2977 RMK AO2 LTG DSNT NW-E SLP062 CONS LTGICCCCA DSNT NW-NE CB DSNT NW-NE MOV SE T02280200 55007
KOKC 240752Z 08014KT 10SM FEW060 BKN090 OVC250 24/22 A2973 RMK AO2 SLP051 T02390217
KOKC 240352Z COR 10006KT 10SM TS SCT040CB BKN110 26/23 A2978 RMK AO2 LTG DSNT S TSB52 SLP068 FRQ LTGICCC E-S TS E-S MOV E T02610228
KOKC 240252Z 11007KT 10SM SCT060 BKN070 27/23 A2978 RMK AO2 SLP069 T02720228 53002
KOKC 240152Z 10008KT 10SM SCT037 SCT080 BKN100 28/23 A2976 RMK AO2 SLP062 T02780228
KOKC 240052Z COR 12013KT 10SM SCT048 BKN100 29/22 A2976 RMK AO2 SLP063 T02940217
KOKC 232352Z 11009KT 10SM SCT045 SCT150 31/21 A2977 RMK AO2 SLP065 T03060211 10317 20267 58012
KOKC 232252Z 18008KT 10SM SCT040 31/21 A2978 RMK AO2 SLP069 T03110206
KOKC 232152Z VRB06KT 10SM SCT041 SCT050 32/21 A2980 RMK AO2 SLP075 T03170206